Time;durP1;ratioP1;P1;durP2;ratioP2;P2;SDS_P1;SDS_P2;PMS_P1;PMS_P2;Temp;Humidity;BMP_temperature;BMP_pressure;BME280_temperature;BME280_humidity;BME280_pressure;Samples;Min_cycle;Max_cycle;Signal;HPM_P1;HPM_P2
2021/10/24 00:00:15;;;;;;;19.27;14.32;;;;;;;;;;5072573;28;20491;-63
2021/10/24 00:03:01;;;;;;;17.00;13.45;;;;;;;;;;5072599;28;20060;-63
2021/10/24 00:05:46;;;;;;;24.85;14.85;;;;;;;;;;5071024;28;20460;-64
2021/10/24 00:08:32;;;;;;;18.67;14.55;;;;;;;;;;5072734;28;20052;-64
2021/10/24 00:11:17;;;;;;;16.58;14.60;;;;;;;;;;5072318;28;20045;-64
2021/10/24 00:14:04;;;;;;;24.58;15.70;;;;;;;;;;5067646;28;20502;-63
2021/10/24 00:16:49;;;;;;;23.75;15.05;;;;;;;;;;5072573;28;20052;-63
2021/10/24 00:19:34;;;;;;;21.27;15.80;;;;;;;;;;5072299;28;20056;-63
2021/10/24 00:22:20;;;;;;;23.02;16.67;;;;;;;;;;5072463;28;20127;-63
2021/10/24 00:25:06;;;;;;;24.05;16.85;;;;;;;;;;5070381;28;20048;-64
2021/10/24 00:27:51;;;;;;;31.30;16.92;;;;;;;;;;5072252;28;20045;-63
2021/10/24 00:30:36;;;;;;;23.67;16.77;;;;;;;;;;5057257;28;20074;-63
2021/10/24 00:33:22;;;;;;;28.10;15.80;;;;;;;;;;5072303;28;20052;-63
2021/10/24 00:36:07;;;;;;;26.85;16.10;;;;;;;;;;5070397;28;20056;-63
2021/10/24 00:38:53;;;;;;;20.45;17.15;;;;;;;;;;5072390;28;20056;-63
2021/10/24 00:41:38;;;;;;;23.48;16.92;;;;;;;;;;5056983;28;20056;-64
2021/10/24 00:44:24;;;;;;;21.50;15.65;;;;;;;;;;5056971;28;20041;-64
2021/10/24 00:47:10;;;;;;;19.08;14.55;;;;;;;;;;5032287;28;20053;-64
2021/10/24 00:49:55;;;;;;;18.00;15.73;;;;;;;;;;5032358;28;20049;-63
2021/10/24 00:52:42;;;;;;;21.42;15.60;;;;;;;;;;5017077;28;20057;-64
2021/10/24 00:55:28;;;;;;;20.25;16.15;;;;;;;;;;5042222;28;20048;-63
2021/10/24 00:58:13;;;;;;;21.98;15.77;;;;;;;;;;5056831;28;20056;-63
2021/10/24 01:00:59;;;;;;;20.13;15.23;;;;;;;;;;5042794;28;20056;-64
2021/10/24 01:03:44;;;;;;;20.98;15.68;;;;;;;;;;5071786;28;20053;-64
2021/10/24 01:06:32;;;;;;;17.58;14.98;;;;;;;;;;5055026;28;20048;-64
2021/10/24 01:09:18;;;;;;;20.70;15.75;;;;;;;;;;5056781;28;20075;-64
2021/10/24 01:12:03;;;;;;;20.63;15.23;;;;;;;;;;5042679;28;20048;-63
2021/10/24 01:14:49;;;;;;;18.48;15.50;;;;;;;;;;5056531;28;20052;-63
2021/10/24 01:17:35;;;;;;;24.65;15.80;;;;;;;;;;5054872;28;20052;-62
2021/10/24 01:20:23;;;;;;;19.58;16.05;;;;;;;;;;5071617;28;20403;-63
2021/10/24 01:23:09;;;;;;;23.35;14.75;;;;;;;;;;5042870;28;20052;-63
2021/10/24 01:25:55;;;;;;;22.48;15.35;;;;;;;;;;5069850;28;20053;-63
2021/10/24 01:28:40;;;;;;;20.17;16.45;;;;;;;;;;5056457;28;20530;-63
2021/10/24 01:31:27;;;;;;;20.40;15.73;;;;;;;;;;5071663;28;20049;-63
2021/10/24 01:34:12;;;;;;;23.13;15.55;;;;;;;;;;5056167;28;20056;-63
2021/10/24 01:37:00;;;;;;;19.50;15.38;;;;;;;;;;5053293;28;20068;-63
2021/10/24 01:39:45;;;;;;;22.80;16.65;;;;;;;;;;5071607;28;20056;-62
2021/10/24 01:42:30;;;;;;;20.27;16.17;;;;;;;;;;5056269;28;20514;-62
2021/10/24 01:45:17;;;;;;;23.88;15.93;;;;;;;;;;5069777;28;20201;-64
2021/10/24 01:48:02;;;;;;;19.63;15.82;;;;;;;;;;5056581;28;20079;-64
2021/10/24 01:50:48;;;;;;;23.45;15.88;;;;;;;;;;5056236;28;20048;-64
2021/10/24 01:53:34;;;;;;;22.40;16.20;;;;;;;;;;5053629;28;20048;-65
2021/10/24 01:56:19;;;;;;;22.25;16.58;;;;;;;;;;5056459;28;20049;-64
2021/10/24 01:59:04;;;;;;;22.10;16.15;;;;;;;;;;5056281;28;20052;-64
2021/10/24 02:02:08;;;;;;;20.70;15.60;;;;;;;;;;5071268;28;20084;-64
2021/10/24 02:05:13;;;;;;;26.02;17.45;;;;;;;;;;5031095;28;20050;-63
2021/10/24 02:07:58;;;;;;;25.45;16.55;;;;;;;;;;5016420;28;20053;-65
2021/10/24 02:10:44;;;;;;;20.80;16.95;;;;;;;;;;5019031;28;20053;-64
2021/10/24 02:13:32;;;;;;;24.85;17.13;;;;;;;;;;5031297;28;20511;-63
2021/10/24 02:16:23;;;;;;;21.85;16.77;;;;;;;;;;5059678;28;20068;-63
2021/10/24 02:19:10;;;;;;;27.00;18.23;;;;;;;;;;5059824;28;20123;-63
2021/10/24 02:21:56;;;;;;;28.33;19.23;;;;;;;;;;5059566;28;20123;-63
2021/10/24 02:24:41;;;;;;;26.00;17.35;;;;;;;;;;5057094;28;20115;-63
2021/10/24 02:27:27;;;;;;;34.40;18.98;;;;;;;;;;5059703;28;20452;-63
2021/10/24 02:30:12;;;;;;;29.35;18.80;;;;;;;;;;5059404;28;20053;-63
2021/10/24 02:32:58;;;;;;;24.70;18.33;;;;;;;;;;5059319;28;20083;-63
2021/10/24 02:36:04;;;;;;;25.27;18.45;;;;;;;;;;5059424;28;20052;-63
2021/10/24 02:38:49;;;;;;;28.75;18.38;;;;;;;;;;5074517;28;20052;-64
2021/10/24 02:41:35;;;;;;;29.67;18.45;;;;;;;;;;5059340;28;20056;-63
2021/10/24 02:44:20;;;;;;;28.13;19.75;;;;;;;;;;5057180;28;20044;-63
2021/10/24 02:47:10;;;;;;;26.98;18.55;;;;;;;;;;5059101;28;20506;-63
2021/10/24 02:49:56;;;;;;;25.42;18.73;;;;;;;;;;5072733;28;20052;-63
2021/10/24 02:52:41;;;;;;;25.60;18.65;;;;;;;;;;5034199;28;20046;-63
2021/10/24 02:55:26;;;;;;;29.65;18.80;;;;;;;;;;5053720;28;20060;-63
2021/10/24 02:58:12;;;;;;;25.50;19.33;;;;;;;;;;5057838;28;20056;-63
2021/10/24 03:00:58;;;;;;;27.92;17.65;;;;;;;;;;5058322;28;20445;-64
2021/10/24 03:03:44;;;;;;;23.80;18.95;;;;;;;;;;5058605;28;20506;-62
2021/10/24 03:06:30;;;;;;;26.98;20.00;;;;;;;;;;5065595;28;20132;-65
2021/10/24 03:09:15;;;;;;;31.10;19.75;;;;;;;;;;5038524;28;20053;-64
2021/10/24 03:12:00;;;;;;;28.30;19.73;;;;;;;;;;5038584;28;20049;-65
2021/10/24 03:14:46;;;;;;;25.33;18.58;;;;;;;;;;5038363;28;20057;-65
2021/10/24 03:17:34;;;;;;;26.33;18.27;;;;;;;;;;5018976;28;20077;-62
2021/10/24 03:20:19;;;;;;;30.02;20.23;;;;;;;;;;5018674;28;20053;-64
2021/10/24 03:23:05;;;;;;;31.67;19.70;;;;;;;;;;5018713;28;20120;-65
2021/10/24 03:25:50;;;;;;;30.35;19.48;;;;;;;;;;5027916;28;20044;-63
2021/10/24 03:28:36;;;;;;;25.17;19.23;;;;;;;;;;5058458;28;20044;-63
2021/10/24 03:31:22;;;;;;;32.75;20.63;;;;;;;;;;5073142;28;20052;-63
2021/10/24 03:34:07;;;;;;;27.25;18.70;;;;;;;;;;5058127;28;20123;-64
2021/10/24 03:36:53;;;;;;;31.40;20.45;;;;;;;;;;5056591;28;20129;-63
2021/10/24 03:39:38;;;;;;;33.33;20.60;;;;;;;;;;5057992;28;20464;-63
2021/10/24 03:42:24;;;;;;;34.00;21.15;;;;;;;;;;5057925;28;20098;-63
2021/10/24 03:45:09;;;;;;;29.92;19.30;;;;;;;;;;5057752;28;20059;-63
2021/10/24 03:47:54;;;;;;;30.45;21.20;;;;;;;;;;5056171;28;20498;-63
2021/10/24 03:50:40;;;;;;;29.42;21.33;;;;;;;;;;5054456;28;20090;-63
2021/10/24 03:53:25;;;;;;;31.85;19.50;;;;;;;;;;5057828;28;20053;-63
2021/10/24 03:56:11;;;;;;;34.08;20.73;;;;;;;;;;5057727;28;20084;-64
2021/10/24 03:59:00;;;;;;;29.27;20.55;;;;;;;;;;5018145;28;20049;-64
2021/10/24 04:01:45;;;;;;;29.67;18.80;;;;;;;;;;5018108;28;20050;-63
2021/10/24 04:04:31;;;;;;;29.48;20.70;;;;;;;;;;5017645;28;20057;-63
2021/10/24 04:07:16;;;;;;;27.65;19.80;;;;;;;;;;5027400;28;20102;-63
2021/10/24 04:10:04;;;;;;;30.70;20.33;;;;;;;;;;5057616;28;20052;-63
2021/10/24 04:12:49;;;;;;;33.85;19.77;;;;;;;;;;5057409;28;20060;-63
2021/10/24 04:15:34;;;;;;;31.08;20.25;;;;;;;;;;5057367;28;20053;-63
2021/10/24 04:18:23;;;;;;;28.25;19.42;;;;;;;;;;5055991;28;20060;-63
2021/10/24 04:21:08;;;;;;;28.70;19.80;;;;;;;;;;5057281;28;20052;-63
2021/10/24 04:23:53;;;;;;;28.67;19.27;;;;;;;;;;5057221;28;20056;-63
2021/10/24 04:26:38;;;;;;;28.65;19.05;;;;;;;;;;5057117;28;20044;-62
2021/10/24 04:29:27;;;;;;;30.10;19.65;;;;;;;;;;5054783;28;20052;-62
2021/10/24 04:32:12;;;;;;;29.83;19.95;;;;;;;;;;5071998;28;20127;-63
2021/10/24 04:34:58;;;;;;;31.58;19.90;;;;;;;;;;5072068;28;20057;-63
2021/10/24 04:37:43;;;;;;;33.45;20.38;;;;;;;;;;5055873;28;20526;-63
2021/10/24 04:40:29;;;;;;;28.83;19.70;;;;;;;;;;5056931;28;20510;-63
2021/10/24 04:43:22;;;;;;;30.90;21.30;;;;;;;;;;5057082;28;20127;-63
2021/10/24 04:46:07;;;;;;;35.63;22.00;;;;;;;;;;5056903;28;20116;-63
2021/10/24 04:48:52;;;;;;;29.48;20.20;;;;;;;;;;5055614;28;20045;-63
2021/10/24 04:51:37;;;;;;;29.45;20.35;;;;;;;;;;5072111;28;20044;-63
2021/10/24 04:54:23;;;;;;;29.00;20.67;;;;;;;;;;5056688;28;20444;-63
2021/10/24 04:57:09;;;;;;;30.42;21.25;;;;;;;;;;5057173;28;20414;-63
2021/10/24 04:59:55;;;;;;;26.42;19.77;;;;;;;;;;5055321;28;20056;-63
2021/10/24 05:02:40;;;;;;;32.22;20.63;;;;;;;;;;5072012;28;20056;-63
2021/10/24 05:05:26;;;;;;;30.05;20.08;;;;;;;;;;5056762;28;20495;-63
2021/10/24 05:08:11;;;;;;;32.33;20.08;;;;;;;;;;5071857;28;20503;-63
2021/10/24 05:10:57;;;;;;;33.38;21.00;;;;;;;;;;5093518;22;20049;-63
2021/10/24 05:13:42;;;;;;;33.72;20.15;;;;;;;;;;5056481;28;20123;-62
2021/10/24 05:16:27;;;;;;;32.28;21.63;;;;;;;;;;5056711;28;20056;-63
2021/10/24 05:19:13;;;;;;;32.58;20.67;;;;;;;;;;5070378;28;20565;-63
2021/10/24 05:21:58;;;;;;;31.27;21.35;;;;;;;;;;5064466;28;20053;-63
2021/10/24 05:24:43;;;;;;;29.52;20.50;;;;;;;;;;5054954;28;20422;-62
2021/10/24 05:27:28;;;;;;;29.05;21.33;;;;;;;;;;5056663;28;20123;-63
2021/10/24 05:30:13;;;;;;;32.75;20.85;;;;;;;;;;5054881;28;20049;-63
2021/10/24 05:32:58;;;;;;;29.13;20.13;;;;;;;;;;5071793;28;20052;-63
2021/10/24 05:35:46;;;;;;;31.52;20.45;;;;;;;;;;5056270;28;20053;-63
2021/10/24 05:38:31;;;;;;;31.60;21.65;;;;;;;;;;5071571;28;20548;-63
2021/10/24 05:41:22;;;;;;;31.42;20.45;;;;;;;;;;5053982;28;20048;-63
2021/10/24 05:44:08;;;;;;;30.17;20.35;;;;;;;;;;5056494;28;20045;-63
2021/10/24 05:46:53;;;;;;;34.58;21.85;;;;;;;;;;5060088;28;20052;-63
2021/10/24 05:49:39;;;;;;;29.60;20.25;;;;;;;;;;5060341;28;20049;-62
2021/10/24 05:52:34;;;;;;;32.92;21.45;;;;;;;;;;5051559;28;20045;-63
2021/10/24 05:55:20;;;;;;;33.58;21.90;;;;;;;;;;5058806;28;20056;-63
2021/10/24 05:58:05;;;;;;;33.97;21.25;;;;;;;;;;5057496;28;20064;-63
2021/10/24 06:01:13;;;;;;;31.35;21.23;;;;;;;;;;5051931;28;20044;-62
2021/10/24 06:04:21;;;;;;;32.85;20.70;;;;;;;;;;5054858;28;20091;-63
2021/10/24 06:07:25;;;;;;;33.50;21.35;;;;;;;;;;5054949;28;20064;-63
2021/10/24 06:10:18;;;;;;;29.10;20.85;;;;;;;;;;5054535;28;20056;-62
2021/10/24 06:13:03;;;;;;;26.40;18.90;;;;;;;;;;5034102;28;20057;-63
2021/10/24 06:15:49;;;;;;;31.52;22.00;;;;;;;;;;5034723;28;20124;-62
2021/10/24 06:18:34;;;;;;;34.08;20.70;;;;;;;;;;5034991;28;20120;-63
2021/10/24 06:21:20;;;;;;;30.10;21.25;;;;;;;;;;5032005;28;20044;-62
2021/10/24 06:24:06;;;;;;;32.58;21.13;;;;;;;;;;5059231;28;20052;-63
2021/10/24 06:26:51;;;;;;;28.75;20.17;;;;;;;;;;5059647;28;20049;-63
2021/10/24 06:29:36;;;;;;;29.63;20.88;;;;;;;;;;5059665;28;20052;-62
2021/10/24 06:32:23;;;;;;;33.90;21.10;;;;;;;;;;5056436;28;20052;-63
2021/10/24 06:35:40;;;;;;;35.13;19.77;;;;;;;;;;5074115;28;20048;-63
2021/10/24 06:38:44;;;;;;;32.50;21.38;;;;;;;;;;5074376;28;20056;-63
2021/10/24 06:41:43;;;;;;;32.65;21.45;;;;;;;;;;5057876;28;20119;-63
2021/10/24 06:44:58;;;;;;;31.55;20.23;;;;;;;;;;5058766;28;20084;-63
2021/10/24 06:48:13;;;;;;;31.63;21.40;;;;;;;;;;5012696;28;20064;-62
2021/10/24 06:51:14;;;;;;;30.65;21.33;;;;;;;;;;5057112;28;20041;-63
2021/10/24 06:54:18;;;;;;;28.92;19.90;;;;;;;;;;5074016;28;20048;-63
2021/10/24 06:57:24;;;;;;;35.08;21.65;;;;;;;;;;5073987;28;20057;-63
2021/10/24 07:00:28;;;;;;;34.47;22.42;;;;;;;;;;5074176;28;20414;-63
2021/10/24 07:03:32;;;;;;;31.20;21.92;;;;;;;;;;5033842;28;20053;-63
2021/10/24 07:06:43;;;;;;;32.50;21.20;;;;;;;;;;5034072;28;20531;-63
2021/10/24 07:09:40;;;;;;;36.83;20.40;;;;;;;;;;5018828;28;20495;-65
2021/10/24 07:12:26;;;;;;;32.05;21.40;;;;;;;;;;5047553;28;20056;-64
2021/10/24 07:15:11;;;;;;;33.10;20.25;;;;;;;;;;5058586;28;20127;-65
2021/10/24 07:17:59;;;;;;;27.15;19.52;;;;;;;;;;5047382;28;20446;-65
2021/10/24 07:20:45;;;;;;;29.60;19.35;;;;;;;;;;5046042;28;20422;-65
2021/10/24 07:23:31;;;;;;;31.35;20.13;;;;;;;;;;5040579;28;20045;-65
2021/10/24 07:26:48;;;;;;;27.35;18.15;;;;;;;;;;5024271;28;20403;-65
2021/10/24 07:29:34;;;;;;;30.27;18.80;;;;;;;;;;5038707;28;20514;-64
2021/10/24 07:32:19;;;;;;;30.55;19.25;;;;;;;;;;5043121;28;20061;-65
2021/10/24 07:35:13;;;;;;;25.23;17.65;;;;;;;;;;5041840;28;20048;-65
2021/10/24 07:37:59;;;;;;;23.95;17.58;;;;;;;;;;5044045;28;20120;-66
2021/10/24 07:40:53;;;;;;;25.73;17.63;;;;;;;;;;5038367;28;20049;-66
2021/10/24 07:43:44;;;;;;;25.63;17.00;;;;;;;;;;5047022;28;20056;-65
2021/10/24 07:46:30;;;;;;;25.05;17.08;;;;;;;;;;5058041;28;20049;-65
2021/10/24 07:49:17;;;;;;;25.23;16.10;;;;;;;;;;5057973;28;20052;-66
2021/10/24 07:52:03;;;;;;;23.05;17.27;;;;;;;;;;5058018;28;20053;-66
2021/10/24 07:54:49;;;;;;;24.75;16.83;;;;;;;;;;5042161;28;20053;-66
2021/10/24 07:57:34;;;;;;;24.98;16.20;;;;;;;;;;5072962;28;20048;-65
2021/10/24 08:00:20;;;;;;;22.83;15.20;;;;;;;;;;5057955;28;20056;-66
2021/10/24 08:03:06;;;;;;;22.67;15.73;;;;;;;;;;5070775;28;20052;-65
2021/10/24 08:05:52;;;;;;;22.02;15.30;;;;;;;;;;5057612;28;20415;-65
2021/10/24 08:08:38;;;;;;;19.38;14.77;;;;;;;;;;5054559;28;20052;-66
2021/10/24 08:11:23;;;;;;;18.35;14.20;;;;;;;;;;5036195;28;20052;-64
2021/10/24 08:14:09;;;;;;;22.02;15.57;;;;;;;;;;5028256;28;20461;-64
2021/10/24 08:16:54;;;;;;;22.60;15.82;;;;;;;;;;5071549;28;20483;-64
2021/10/24 08:19:43;;;;;;;18.60;13.93;;;;;;;;;;5057562;28;20513;-65
2021/10/24 08:22:29;;;;;;;20.67;14.15;;;;;;;;;;5057119;28;20118;-65
2021/10/24 08:25:16;;;;;;;21.70;14.73;;;;;;;;;;5036659;28;20507;-66
2021/10/24 08:28:03;;;;;;;19.50;13.80;;;;;;;;;;5065604;28;20083;-65
2021/10/24 08:31:24;;;;;;;18.23;12.18;;;;;;;;;;5052116;28;20052;-65
2021/10/24 08:34:09;;;;;;;19.93;13.00;;;;;;;;;;5017226;28;20050;-63
2021/10/24 08:36:54;;;;;;;20.50;14.70;;;;;;;;;;5040476;28;20045;-65
2021/10/24 08:39:40;;;;;;;18.42;13.13;;;;;;;;;;5048609;28;20443;-66
2021/10/24 08:42:27;;;;;;;18.60;13.13;;;;;;;;;;5030430;28;20053;-66
2021/10/24 08:45:12;;;;;;;19.60;14.05;;;;;;;;;;5053325;28;20503;-66
2021/10/24 08:47:58;;;;;;;15.30;12.32;;;;;;;;;;5071952;28;20132;-66
2021/10/24 08:50:45;;;;;;;13.98;11.55;;;;;;;;;;5072127;28;20102;-67
2021/10/24 08:53:30;;;;;;;15.93;12.32;;;;;;;;;;5071862;28;20086;-65
2021/10/24 08:56:16;;;;;;;15.52;11.90;;;;;;;;;;5070293;28;20056;-66
2021/10/24 08:59:01;;;;;;;16.08;11.60;;;;;;;;;;5051633;28;20045;-66
2021/10/24 09:01:50;;;;;;;15.95;11.82;;;;;;;;;;5039724;28;20061;-65
2021/10/24 09:04:42;;;;;;;15.07;11.25;;;;;;;;;;5030597;28;20053;-66
2021/10/24 09:07:29;;;;;;;15.95;10.63;;;;;;;;;;5050835;28;20052;-65
2021/10/24 09:10:14;;;;;;;16.17;11.18;;;;;;;;;;5056913;28;20045;-65
2021/10/24 09:13:12;;;;;;;17.73;11.02;;;;;;;;;;5056601;28;20053;-66
2021/10/24 09:15:58;;;;;;;15.90;11.73;;;;;;;;;;5070089;28;20052;-66
2021/10/24 09:18:44;;;;;;;13.35;9.85;;;;;;;;;;5073026;28;20060;-66
2021/10/24 09:21:33;;;;;;;15.13;10.77;;;;;;;;;;5060444;28;20445;-66
2021/10/24 09:24:18;;;;;;;12.02;10.23;;;;;;;;;;5075201;28;20123;-65
2021/10/24 09:27:03;;;;;;;13.43;9.88;;;;;;;;;;5074196;28;20040;-66
2021/10/24 09:29:49;;;;;;;12.55;10.15;;;;;;;;;;5073136;28;20049;-66
2021/10/24 09:32:46;;;;;;;15.07;10.75;;;;;;;;;;5070963;28;20048;-65
2021/10/24 09:35:35;;;;;;;14.77;10.05;;;;;;;;;;5049987;28;20049;-65
2021/10/24 09:38:41;;;;;;;13.75;9.88;;;;;;;;;;5060686;28;20049;-65
2021/10/24 09:41:40;;;;;;;13.38;9.95;;;;;;;;;;5034737;28;20519;-65
2021/10/24 09:44:25;;;;;;;13.57;10.25;;;;;;;;;;5034770;28;20635;-65
2021/10/24 09:47:11;;;;;;;14.93;10.80;;;;;;;;;;5067901;28;20052;-65
2021/10/24 09:49:56;;;;;;;13.05;10.02;;;;;;;;;;5060217;28;20504;-65
2021/10/24 09:52:41;;;;;;;13.75;10.85;;;;;;;;;;5074601;28;20082;-65
2021/10/24 09:55:27;;;;;;;12.57;9.88;;;;;;;;;;5058757;28;20045;-65
2021/10/24 09:58:12;;;;;;;12.90;9.95;;;;;;;;;;5072179;28;20057;-65
2021/10/24 10:00:58;;;;;;;11.98;8.18;;;;;;;;;;5074790;28;20061;-65
2021/10/24 10:03:43;;;;;;;14.60;9.57;;;;;;;;;;5049942;28;20049;-65
2021/10/24 10:06:29;;;;;;;14.05;9.20;;;;;;;;;;5055784;28;20057;-65
2021/10/24 10:09:14;;;;;;;11.73;8.60;;;;;;;;;;5074862;28;20094;-66
2021/10/24 10:12:00;;;;;;;10.95;9.30;;;;;;;;;;5072150;28;20106;-65
2021/10/24 10:14:45;;;;;;;14.05;8.85;;;;;;;;;;5045397;28;20053;-65
2021/10/24 10:17:30;;;;;;;15.10;9.85;;;;;;;;;;5056198;28;20433;-65
2021/10/24 10:20:27;;;;;;;12.07;8.20;;;;;;;;;;5039562;28;20057;-65
2021/10/24 10:23:12;;;;;;;15.05;9.40;;;;;;;;;;5054623;28;20569;-65
2021/10/24 10:25:57;;;;;;;10.45;7.88;;;;;;;;;;5061742;28;20049;-65
2021/10/24 10:28:48;;;;;;;10.45;8.07;;;;;;;;;;5064347;28;20041;-65
2021/10/24 10:31:34;;;;;;;10.60;7.72;;;;;;;;;;5033987;28;20124;-65
2021/10/24 10:34:19;;;;;;;14.38;8.85;;;;;;;;;;5033965;28;20508;-65
2021/10/24 10:37:05;;;;;;;13.48;8.45;;;;;;;;;;5048835;28;20415;-65
2021/10/24 10:39:52;;;;;;;13.50;7.93;;;;;;;;;;5059548;28;20053;-65
2021/10/24 10:42:42;;;;;;;11.40;8.15;;;;;;;;;;5074586;28;20053;-65
2021/10/24 10:45:28;;;;;;;10.43;8.13;;;;;;;;;;5074252;28;20056;-65
2021/10/24 10:48:19;;;;;;;8.98;7.40;;;;;;;;;;5069113;28;20127;-65
2021/10/24 10:51:18;;;;;;;11.25;7.10;;;;;;;;;;5074307;28;20044;-65
2021/10/24 10:54:06;;;;;;;9.32;6.65;;;;;;;;;;5074134;28;20053;-65
2021/10/24 10:56:53;;;;;;;11.40;7.50;;;;;;;;;;5072777;28;20044;-65
2021/10/24 10:59:38;;;;;;;12.55;7.40;;;;;;;;;;5074359;28;20132;-67
2021/10/24 11:02:24;;;;;;;11.25;6.53;;;;;;;;;;5074003;28;20084;-65
2021/10/24 11:05:10;;;;;;;8.82;6.18;;;;;;;;;;5073768;28;20045;-65
2021/10/24 11:07:55;;;;;;;9.38;6.13;;;;;;;;;;5057545;28;20048;-64
2021/10/24 11:10:47;;;;;;;8.30;6.22;;;;;;;;;;5073880;28;20052;-65
2021/10/24 11:13:32;;;;;;;12.82;6.97;;;;;;;;;;5074027;28;20056;-64
2021/10/24 11:16:32;;;;;;;9.45;6.60;;;;;;;;;;5074037;28;20102;-65
2021/10/24 11:19:29;;;;;;;7.50;6.45;;;;;;;;;;5063946;28;20048;-65
2021/10/24 11:22:18;;;;;;;9.75;6.90;;;;;;;;;;5053297;28;20439;-67
2021/10/24 11:25:04;;;;;;;8.98;6.82;;;;;;;;;;5035204;28;20057;-65
2021/10/24 11:27:49;;;;;;;9.15;6.25;;;;;;;;;;5054165;28;20057;-67
2021/10/24 11:30:35;;;;;;;10.50;6.93;;;;;;;;;;5038113;28;20053;-65
2021/10/24 11:33:21;;;;;;;9.43;6.43;;;;;;;;;;5053087;28;20049;-67
2021/10/24 11:36:07;;;;;;;13.27;7.05;;;;;;;;;;5053246;28;20411;-65
2021/10/24 11:38:58;;;;;;;7.35;5.32;;;;;;;;;;5060191;28;20506;-65
2021/10/24 11:41:44;;;;;;;9.48;6.15;;;;;;;;;;5055951;28;20041;-66
2021/10/24 11:44:29;;;;;;;7.35;5.60;;;;;;;;;;5052652;28;20629;-65
2021/10/24 11:47:15;;;;;;;9.65;5.55;;;;;;;;;;5052617;28;20503;-65
2021/10/24 11:50:00;;;;;;;8.90;5.50;;;;;;;;;;5066788;28;20053;-65
2021/10/24 11:52:46;;;;;;;7.45;5.13;;;;;;;;;;5073073;28;20048;-66
2021/10/24 11:55:31;;;;;;;9.43;5.40;;;;;;;;;;5057712;28;20053;-65
2021/10/24 11:58:33;;;;;;;8.07;6.32;;;;;;;;;;5073097;28;20410;-65
2021/10/24 12:01:18;;;;;;;7.72;5.75;;;;;;;;;;5052815;28;20557;-65
2021/10/24 12:04:04;;;;;;;6.80;5.70;;;;;;;;;;5068866;28;20083;-65
2021/10/24 12:06:53;;;;;;;10.02;5.80;;;;;;;;;;5072813;28;20052;-65
2021/10/24 12:09:39;;;;;;;7.78;6.38;;;;;;;;;;5071153;28;20040;-65
2021/10/24 12:12:28;;;;;;;8.82;6.05;;;;;;;;;;5072487;28;20049;-66
2021/10/24 12:15:15;;;;;;;8.52;6.57;;;;;;;;;;5072329;28;20418;-65
2021/10/24 12:18:00;;;;;;;9.48;5.80;;;;;;;;;;5072579;28;20119;-65
2021/10/24 12:21:01;;;;;;;9.30;5.72;;;;;;;;;;5055910;28;20060;-65
2021/10/24 12:23:46;;;;;;;11.43;7.25;;;;;;;;;;5072335;28;20057;-65
2021/10/24 12:26:34;;;;;;;7.88;5.93;;;;;;;;;;5072376;28;20056;-65
2021/10/24 12:29:19;;;;;;;9.38;6.20;;;;;;;;;;5071961;28;20048;-65
2021/10/24 12:32:06;;;;;;;9.65;7.03;;;;;;;;;;5071132;28;20510;-65
2021/10/24 12:34:58;;;;;;;7.93;5.57;;;;;;;;;;5071699;28;20472;-65
2021/10/24 12:37:43;;;;;;;7.53;6.05;;;;;;;;;;5072099;28;20131;-66
2021/10/24 12:40:29;;;;;;;6.60;5.57;;;;;;;;;;5052084;28;20136;-67
2021/10/24 12:43:15;;;;;;;7.80;5.45;;;;;;;;;;5069920;28;20048;-67
2021/10/24 12:46:01;;;;;;;7.82;5.78;;;;;;;;;;5050515;28;20049;-65
2021/10/24 12:48:46;;;;;;;8.80;6.22;;;;;;;;;;5051312;28;20044;-65
2021/10/24 12:51:32;;;;;;;7.50;5.35;;;;;;;;;;5045421;28;20053;-65
2021/10/24 12:54:27;;;;;;;6.28;4.95;;;;;;;;;;5049474;28;20072;-65
2021/10/24 12:57:12;;;;;;;12.73;6.25;;;;;;;;;;5048982;28;20491;-65
2021/10/24 12:59:57;;;;;;;8.48;5.97;;;;;;;;;;5051226;28;20041;-65
2021/10/24 13:02:43;;;;;;;10.02;5.88;;;;;;;;;;5052566;28;20128;-67
2021/10/24 13:05:30;;;;;;;8.98;5.50;;;;;;;;;;5050863;28;20517;-66
2021/10/24 13:08:16;;;;;;;8.68;5.45;;;;;;;;;;5050950;28;20045;-66
2021/10/24 13:11:02;;;;;;;5.95;5.28;;;;;;;;;;5042939;28;20049;-66
2021/10/24 13:13:47;;;;;;;7.53;4.88;;;;;;;;;;5049281;28;20116;-65
2021/10/24 13:16:33;;;;;;;7.65;5.10;;;;;;;;;;5046550;28;20053;-65
2021/10/24 13:19:19;;;;;;;7.72;5.03;;;;;;;;;;5057222;28;20057;-65
2021/10/24 13:25:08;;;;;;;7.53;4.97;;;;;;;;;;5042801;28;20115;-66
2021/10/24 13:27:54;;;;;;;6.55;5.15;;;;;;;;;;5045239;28;20048;-65
2021/10/24 13:30:39;;;;;;;7.22;5.20;;;;;;;;;;5055646;28;20132;-66
2021/10/24 13:33:25;;;;;;;8.43;5.75;;;;;;;;;;5037603;28;20052;-66
2021/10/24 13:36:10;;;;;;;6.57;5.28;;;;;;;;;;5041703;28;20053;-66
2021/10/24 13:38:56;;;;;;;5.72;5.00;;;;;;;;;;5044944;28;20419;-65
2021/10/24 13:41:42;;;;;;;8.52;5.78;;;;;;;;;;5057127;28;20123;-66
2021/10/24 13:44:27;;;;;;;7.38;4.90;;;;;;;;;;5049962;28;20053;-66
2021/10/24 13:47:13;;;;;;;9.27;5.25;;;;;;;;;;5060165;28;20053;-66
2021/10/24 13:49:58;;;;;;;7.18;4.90;;;;;;;;;;5058798;28;20053;-66
2021/10/24 13:52:43;;;;;;;6.68;4.25;;;;;;;;;;5061153;28;20045;-65
2021/10/24 13:55:28;;;;;;;7.32;4.88;;;;;;;;;;5067376;28;20057;-66
2021/10/24 13:58:14;;;;;;;8.52;5.25;;;;;;;;;;5056867;28;20049;-66
2021/10/24 14:00:59;;;;;;;6.57;4.50;;;;;;;;;;5029907;28;20057;-66
2021/10/24 14:03:52;;;;;;;6.22;4.53;;;;;;;;;;5054588;28;20590;-66
2021/10/24 14:06:37;;;;;;;7.78;4.22;;;;;;;;;;5060706;28;20049;-66
2021/10/24 14:09:22;;;;;;;9.27;4.60;;;;;;;;;;5052263;28;20571;-65
2021/10/24 14:12:08;;;;;;;7.43;5.65;;;;;;;;;;5050353;28;20502;-66
2021/10/24 14:14:53;;;;;;;6.20;4.88;;;;;;;;;;5063022;28;20052;-65
2021/10/24 14:17:38;;;;;;;5.82;4.68;;;;;;;;;;5052753;28;20085;-65
2021/10/24 14:20:25;;;;;;;6.75;4.88;;;;;;;;;;5052343;28;20052;-66
2021/10/24 14:23:10;;;;;;;6.18;4.50;;;;;;;;;;5051774;28;20084;-67
2021/10/24 14:25:55;;;;;;;6.60;4.97;;;;;;;;;;5065890;28;20049;-66
2021/10/24 14:28:40;;;;;;;9.43;5.18;;;;;;;;;;5054139;28;20053;-66
2021/10/24 14:31:26;;;;;;;8.13;4.80;;;;;;;;;;5054515;28;20461;-65
2021/10/24 14:34:11;;;;;;;7.20;4.07;;;;;;;;;;5054927;28;20053;-66
2021/10/24 14:36:56;;;;;;;6.07;4.35;;;;;;;;;;5070309;28;20365;-65
2021/10/24 14:39:42;;;;;;;4.75;4.03;;;;;;;;;;5054327;28;20057;-66
2021/10/24 14:42:27;;;;;;;7.95;4.80;;;;;;;;;;5052606;28;20053;-66
2021/10/24 14:45:13;;;;;;;7.38;4.20;;;;;;;;;;5053958;28;20048;-66
2021/10/24 14:47:58;;;;;;;7.22;4.13;;;;;;;;;;5054157;28;20053;-65
2021/10/24 14:50:44;;;;;;;5.90;4.47;;;;;;;;;;5054180;28;20052;-65
2021/10/24 14:53:29;;;;;;;7.18;4.30;;;;;;;;;;5065224;28;20136;-66
2021/10/24 14:56:15;;;;;;;8.40;4.40;;;;;;;;;;5046616;28;20045;-65
2021/10/24 14:59:00;;;;;;;6.97;3.90;;;;;;;;;;5070979;28;20052;-65
2021/10/24 15:01:45;;;;;;;5.80;4.15;;;;;;;;;;5071213;28;20123;-65
2021/10/24 15:04:31;;;;;;;6.13;4.35;;;;;;;;;;5070270;28;20388;-65
2021/10/24 15:07:16;;;;;;;9.60;4.90;;;;;;;;;;5068511;28;20049;-66
2021/10/24 15:10:02;;;;;;;9.77;5.05;;;;;;;;;;5071780;28;20053;-66
2021/10/24 15:12:47;;;;;;;9.50;5.65;;;;;;;;;;5067029;28;20469;-66
2021/10/24 15:15:33;;;;;;;8.65;5.38;;;;;;;;;;5059576;28;20108;-65
2021/10/24 15:18:22;;;;;;;15.75;8.18;;;;;;;;;;5019026;28;20428;-65
2021/10/24 15:21:10;;;;;;;19.95;9.95;;;;;;;;;;5033821;28;20057;-66
2021/10/24 15:23:55;;;;;;;20.30;10.30;;;;;;;;;;5033385;28;20415;-65
2021/10/24 15:26:41;;;;;;;9.18;5.18;;;;;;;;;;5049053;28;20052;-65
2021/10/24 15:29:26;;;;;;;8.25;4.30;;;;;;;;;;5073578;28;20052;-65
2021/10/24 15:32:11;;;;;;;6.43;4.03;;;;;;;;;;5058361;28;20084;-65
2021/10/24 15:34:56;;;;;;;5.95;4.07;;;;;;;;;;5073313;28;20052;-65
2021/10/24 15:37:41;;;;;;;7.43;4.47;;;;;;;;;;5071633;28;20056;-66
2021/10/24 15:40:27;;;;;;;6.03;5.13;;;;;;;;;;5073233;28;20048;-66
2021/10/24 15:43:13;;;;;;;8.65;4.85;;;;;;;;;;5073418;28;20410;-65
2021/10/24 15:45:58;;;;;;;7.30;5.28;;;;;;;;;;5073227;28;20056;-65
2021/10/24 15:48:44;;;;;;;8.52;4.72;;;;;;;;;;5071290;28;20052;-66
2021/10/24 15:51:29;;;;;;;8.63;5.82;;;;;;;;;;5058284;28;20082;-66
2021/10/24 15:54:15;;;;;;;8.35;5.53;;;;;;;;;;5072839;28;20049;-65
2021/10/24 15:57:01;;;;;;;12.80;6.22;;;;;;;;;;5057911;28;20045;-65
2021/10/24 15:59:47;;;;;;;7.38;5.55;;;;;;;;;;5072943;28;20052;-66
2021/10/24 16:02:33;;;;;;;8.85;5.82;;;;;;;;;;5030552;28;20048;-65
2021/10/24 16:05:18;;;;;;;9.40;5.35;;;;;;;;;;5029473;28;20049;-65
2021/10/24 16:08:04;;;;;;;9.70;6.18;;;;;;;;;;5046157;28;20449;-65
2021/10/24 16:10:49;;;;;;;8.98;6.30;;;;;;;;;;5070219;28;20688;-65
2021/10/24 16:13:35;;;;;;;11.70;6.13;;;;;;;;;;5070362;28;20498;-65
2021/10/24 16:16:20;;;;;;;13.60;6.57;;;;;;;;;;5069835;28;20049;-65
2021/10/24 16:19:05;;;;;;;10.10;6.10;;;;;;;;;;5069080;28;20048;-64
2021/10/24 16:21:51;;;;;;;11.07;6.95;;;;;;;;;;5069639;28;20127;-65
2021/10/24 16:24:36;;;;;;;14.55;6.05;;;;;;;;;;5070491;28;20059;-65
2021/10/24 16:27:22;;;;;;;12.20;6.90;;;;;;;;;;5069462;28;20471;-65